createdAt,value
2023-12-23T00:00:53.633Z,4.30
2023-12-23T00:03:21.639Z,4.30
2023-12-23T00:05:48.510Z,4.20
2023-12-23T00:08:15.480Z,4.20
2023-12-23T00:10:42.461Z,4.30
2023-12-23T00:13:09.342Z,4.30
2023-12-23T00:15:36.206Z,4.20
2023-12-23T00:18:03.529Z,4.20
2023-12-23T00:20:30.714Z,4.20
2023-12-23T00:22:57.724Z,4.20
2023-12-23T00:25:24.639Z,4.30
2023-12-23T00:27:51.707Z,4.50
2023-12-23T00:30:19.106Z,4.50
2023-12-23T00:32:46.446Z,4.40
2023-12-23T00:35:13.863Z,4.30
2023-12-23T00:37:40.777Z,4.30
2023-12-23T00:40:08.323Z,4.30
2023-12-23T00:42:35.244Z,4.30
2023-12-23T00:45:02.200Z,4.30
2023-12-23T00:47:33.465Z,4.40
2023-12-23T00:50:02.842Z,4.40
2023-12-23T00:52:30.281Z,4.50
2023-12-23T00:54:57.193Z,4.50
2023-12-23T00:57:24.057Z,4.60
2023-12-23T00:59:51.132Z,4.60
2023-12-23T01:02:18.007Z,4.60
2023-12-23T01:04:44.849Z,4.60
2023-12-23T01:07:11.953Z,4.80
2023-12-23T01:09:38.766Z,4.90
2023-12-23T01:12:06.541Z,4.90
2023-12-23T01:14:33.470Z,4.90
2023-12-23T01:17:00.298Z,4.80
2023-12-23T01:19:27.148Z,4.90
2023-12-23T01:21:53.936Z,4.90
2023-12-23T01:24:20.736Z,5.00
2023-12-23T01:26:47.557Z,4.90
2023-12-23T01:29:14.463Z,4.90
2023-12-23T01:31:41.355Z,4.90
2023-12-23T01:34:08.230Z,4.90
2023-12-23T01:36:35.038Z,4.90
2023-12-23T01:39:01.839Z,4.80
2023-12-23T01:41:28.707Z,4.80
2023-12-23T01:43:55.554Z,4.70
2023-12-23T01:46:23.577Z,4.80
2023-12-23T01:48:51.192Z,4.80
2023-12-23T01:51:19.111Z,4.70
2023-12-23T01:53:46.383Z,4.70
2023-12-23T01:56:13.601Z,4.80
2023-12-23T01:58:40.970Z,4.80
2023-12-23T02:01:08.336Z,4.80
2023-12-23T02:03:35.988Z,4.90
2023-12-23T02:06:03.065Z,4.80
2023-12-23T02:08:30.190Z,4.80
2023-12-23T02:11:06.682Z,4.80
2023-12-23T02:13:39.280Z,4.80
2023-12-23T02:16:06.780Z,4.80
2023-12-23T02:18:33.761Z,4.80
2023-12-23T02:21:01.258Z,4.80
2023-12-23T02:23:28.122Z,4.40
2023-12-23T02:26:04.000Z,4.30
2023-12-23T02:28:33.157Z,4.20
2023-12-23T02:31:01.260Z,4.10
2023-12-23T02:33:28.406Z,4.20
2023-12-23T02:35:55.309Z,4.10
2023-12-23T02:38:23.425Z,4.00
2023-12-23T02:40:50.501Z,4.10
2023-12-23T02:43:17.850Z,4.20
2023-12-23T02:45:44.827Z,4.30
2023-12-23T02:48:11.773Z,4.50
2023-12-23T02:50:38.895Z,4.40
2023-12-23T02:53:09.034Z,4.40
2023-12-23T02:55:37.793Z,4.60
2023-12-23T02:58:04.946Z,4.60
2023-12-23T03:00:31.889Z,4.60
2023-12-23T03:02:58.732Z,4.70
2023-12-23T03:05:25.779Z,4.60
2023-12-23T03:07:52.644Z,4.70
2023-12-23T03:10:19.436Z,4.80
2023-12-23T03:12:48.209Z,4.70
2023-12-23T03:15:15.318Z,4.70
2023-12-23T03:17:42.222Z,4.70
2023-12-23T03:20:09.928Z,4.80
2023-12-23T03:22:36.900Z,4.80
2023-12-23T03:25:03.953Z,4.80
2023-12-23T03:27:30.752Z,5.00
2023-12-23T03:29:57.435Z,5.10
2023-12-23T03:32:24.175Z,5.00
2023-12-23T03:34:52.374Z,5.10
2023-12-23T03:37:19.209Z,5.00
2023-12-23T03:39:46.239Z,5.10
2023-12-23T03:42:12.979Z,5.10
2023-12-23T03:44:39.744Z,5.20
2023-12-23T03:47:06.482Z,5.20
2023-12-23T03:49:33.213Z,5.20
2023-12-23T03:52:00.689Z,5.10
2023-12-23T03:54:27.435Z,5.20
2023-12-23T03:56:54.153Z,5.30
2023-12-23T03:59:20.998Z,5.20
2023-12-23T04:01:47.808Z,5.20
2023-12-23T04:04:14.581Z,5.20
2023-12-23T04:06:42.075Z,5.20
2023-12-23T04:09:10.737Z,5.10
2023-12-23T04:11:37.467Z,5.10
2023-12-23T04:14:04.484Z,5.10
2023-12-23T04:16:31.545Z,5.20
2023-12-23T04:18:58.823Z,5.10
2023-12-23T04:21:25.655Z,5.00
2023-12-23T04:23:52.485Z,5.00
2023-12-23T04:26:19.325Z,5.00
2023-12-23T04:28:46.166Z,4.90
2023-12-23T04:31:13.230Z,4.90
2023-12-23T04:33:40.460Z,4.90
2023-12-23T04:36:08.009Z,4.90
2023-12-23T04:38:36.383Z,4.80
2023-12-23T04:41:03.495Z,4.90
2023-12-23T04:43:34.388Z,4.90
2023-12-23T04:46:01.204Z,4.80
2023-12-23T04:48:28.220Z,4.80
2023-12-23T04:50:55.266Z,4.80
2023-12-23T04:53:23.119Z,4.80
2023-12-23T04:55:50.255Z,4.80
2023-12-23T04:58:17.030Z,4.80
2023-12-23T05:00:43.896Z,4.80
2023-12-23T05:03:10.623Z,4.70
2023-12-23T05:05:37.667Z,4.70
2023-12-23T05:08:04.708Z,4.70
2023-12-23T05:10:31.509Z,4.70
2023-12-23T05:12:58.317Z,4.60
2023-12-23T05:15:25.170Z,4.60
2023-12-23T05:17:52.241Z,4.60
2023-12-23T05:20:19.382Z,4.60
2023-12-23T05:22:46.629Z,4.60
2023-12-23T05:25:13.586Z,4.60
2023-12-23T05:27:40.349Z,4.50
2023-12-23T05:30:08.135Z,4.50
2023-12-23T05:32:35.082Z,4.50
2023-12-23T05:35:02.245Z,4.40
2023-12-23T05:37:29.524Z,4.50
2023-12-23T05:39:56.321Z,4.50
2023-12-23T05:42:25.164Z,4.50
2023-12-23T05:44:52.062Z,4.50
2023-12-23T05:47:19.152Z,4.50
2023-12-23T05:49:45.991Z,4.50
2023-12-23T05:52:12.811Z,4.50
2023-12-23T05:54:39.719Z,4.50
2023-12-23T05:57:06.500Z,4.40
2023-12-23T05:59:33.718Z,4.40
2023-12-23T06:02:00.758Z,4.40
2023-12-23T06:04:28.342Z,4.40
2023-12-23T06:06:55.218Z,4.40
2023-12-23T06:09:22.032Z,4.40
2023-12-23T06:11:49.172Z,4.40
2023-12-23T06:14:16.161Z,4.30
2023-12-23T06:16:43.230Z,4.40
2023-12-23T06:19:10.431Z,4.40
2023-12-23T06:21:37.445Z,4.30
2023-12-23T06:24:04.656Z,4.30
2023-12-23T06:26:31.506Z,4.30
2023-12-23T06:28:58.375Z,4.30
2023-12-23T06:31:25.260Z,4.20
2023-12-23T06:33:52.193Z,4.30
2023-12-23T06:36:19.019Z,4.30
2023-12-23T06:38:45.870Z,4.30
2023-12-23T06:41:13.594Z,4.30
2023-12-23T06:43:46.510Z,4.30
2023-12-23T06:46:19.611Z,4.20
2023-12-23T06:48:46.762Z,4.30
2023-12-23T06:51:13.946Z,4.20
2023-12-23T06:53:41.105Z,4.30
2023-12-23T06:56:08.487Z,4.30
2023-12-23T06:58:35.723Z,4.20
2023-12-23T07:01:02.779Z,4.20
2023-12-23T07:03:29.823Z,4.20
2023-12-23T07:05:56.858Z,4.20
2023-12-23T07:08:24.030Z,4.20
2023-12-23T07:10:53.839Z,4.20
2023-12-23T07:13:20.671Z,4.20
2023-12-23T07:15:47.746Z,4.20
2023-12-23T07:18:15.092Z,4.20
2023-12-23T07:20:43.718Z,4.20
2023-12-23T07:23:10.671Z,4.20
2023-12-23T07:25:37.492Z,4.20
2023-12-23T07:28:04.518Z,4.20
2023-12-23T07:30:31.417Z,4.20
2023-12-23T07:32:58.359Z,4.30
2023-12-23T07:35:25.358Z,4.20
2023-12-23T07:37:52.807Z,4.20
2023-12-23T07:40:19.831Z,4.20
2023-12-23T07:42:46.675Z,4.30
2023-12-23T07:45:13.480Z,4.30
2023-12-23T07:47:40.392Z,4.20
2023-12-23T07:50:07.584Z,4.20
2023-12-23T07:52:34.492Z,4.30
2023-12-23T07:55:01.378Z,4.20
2023-12-23T07:57:28.191Z,4.20
2023-12-23T07:59:55.122Z,4.30
2023-12-23T08:02:22.127Z,4.30
2023-12-23T08:04:49.354Z,4.30
2023-12-23T08:07:16.384Z,4.30
2023-12-23T08:09:43.398Z,4.40
2023-12-23T08:12:10.253Z,4.30
2023-12-23T08:14:37.204Z,4.30
2023-12-23T08:17:04.242Z,4.30
2023-12-23T08:19:31.146Z,4.40
2023-12-23T08:21:58.026Z,4.30
2023-12-23T08:24:25.089Z,4.30
2023-12-23T08:26:51.906Z,4.20
2023-12-23T08:29:18.787Z,4.30
2023-12-23T08:31:46.214Z,4.30
2023-12-23T08:34:13.638Z,4.30
2023-12-23T08:36:40.616Z,4.30
2023-12-23T08:39:07.963Z,4.20
2023-12-23T08:41:37.513Z,4.20
2023-12-23T08:44:05.138Z,4.30
2023-12-23T08:46:34.690Z,4.30
2023-12-23T08:49:02.498Z,4.30
2023-12-23T08:51:32.788Z,4.20
2023-12-23T08:53:59.715Z,4.20
2023-12-23T08:56:26.647Z,4.20
2023-12-23T08:58:53.649Z,4.20
2023-12-23T09:01:20.616Z,4.10
2023-12-23T09:03:47.446Z,4.00
2023-12-23T09:06:14.427Z,4.10
2023-12-23T09:08:41.340Z,4.00
2023-12-23T09:11:08.427Z,4.00
2023-12-23T09:13:35.275Z,4.00
2023-12-23T09:16:06.621Z,4.00
2023-12-23T09:18:33.731Z,4.10
2023-12-23T09:21:00.841Z,4.00
2023-12-23T09:23:27.848Z,4.00
2023-12-23T09:25:54.933Z,3.90
2023-12-23T09:28:21.792Z,3.90
2023-12-23T09:30:49.111Z,3.90
2023-12-23T09:33:17.063Z,4.00
2023-12-23T09:35:43.939Z,3.90
2023-12-23T09:38:13.902Z,3.90
2023-12-23T09:40:40.863Z,3.90
2023-12-23T09:43:08.184Z,4.10
2023-12-23T09:45:37.999Z,4.80
2023-12-23T09:48:05.677Z,4.40
2023-12-23T09:50:32.812Z,4.20
2023-12-23T09:53:01.884Z,4.10
2023-12-23T09:55:30.457Z,3.90
2023-12-23T09:57:57.630Z,4.00
2023-12-23T10:00:24.616Z,4.00
2023-12-23T10:02:51.984Z,4.00
2023-12-23T10:05:19.227Z,4.00
2023-12-23T10:07:46.163Z,4.00
2023-12-23T10:10:13.393Z,4.00
2023-12-23T10:12:40.231Z,4.10
2023-12-23T10:15:07.606Z,4.10
2023-12-23T10:17:34.558Z,4.10
2023-12-23T10:20:02.675Z,4.10
2023-12-23T10:22:29.824Z,4.10
2023-12-23T10:24:58.069Z,4.10
2023-12-23T10:27:27.539Z,4.10
2023-12-23T10:29:56.988Z,4.10
2023-12-23T10:32:29.138Z,4.10
2023-12-23T10:35:01.555Z,4.10
2023-12-23T10:37:29.866Z,4.20
2023-12-23T10:40:23.364Z,4.20
2023-12-23T10:42:52.418Z,4.10
2023-12-23T10:45:21.631Z,4.20
2023-12-23T10:47:50.343Z,4.20
2023-12-23T10:50:18.116Z,4.20
2023-12-23T10:52:45.817Z,4.10
2023-12-23T10:55:13.552Z,4.10
2023-12-23T10:57:41.960Z,4.10
2023-12-23T11:00:10.914Z,4.10
2023-12-23T11:02:39.158Z,4.10
2023-12-23T11:05:11.483Z,4.10
2023-12-23T11:07:44.644Z,4.10
2023-12-23T11:10:13.712Z,4.10
2023-12-23T11:12:42.905Z,4.20
2023-12-23T11:15:10.426Z,4.20
2023-12-23T11:17:44.199Z,4.20
2023-12-23T11:20:36.843Z,4.20
2023-12-23T11:23:30.031Z,4.30
2023-12-23T11:25:57.282Z,4.20
2023-12-23T11:28:27.067Z,4.30
2023-12-23T11:30:56.109Z,4.30
2023-12-23T11:33:25.315Z,4.30
2023-12-23T11:35:53.714Z,4.40
2023-12-23T11:38:27.525Z,4.40
2023-12-23T11:40:54.575Z,4.50
2023-12-23T11:43:22.662Z,4.50
2023-12-23T11:45:51.661Z,4.40
2023-12-23T11:48:22.067Z,4.40
2023-12-23T11:50:49.239Z,4.50
2023-12-23T11:53:17.148Z,4.50
2023-12-23T11:55:44.665Z,4.50
2023-12-23T11:58:11.944Z,4.50
2023-12-23T12:00:39.714Z,4.50
2023-12-23T12:03:06.913Z,4.50
2023-12-23T12:05:33.877Z,4.50
2023-12-23T12:08:00.962Z,4.60
2023-12-23T12:10:28.237Z,4.50
2023-12-23T12:12:55.343Z,4.40
2023-12-23T12:15:22.447Z,4.40
2023-12-23T12:17:49.642Z,4.50
2023-12-23T12:20:16.796Z,4.50
2023-12-23T12:22:48.302Z,4.60
2023-12-23T12:25:17.010Z,4.50
2023-12-23T12:27:43.999Z,4.60
2023-12-23T12:30:13.076Z,4.60
2023-12-23T12:32:46.633Z,4.60
2023-12-23T12:35:14.236Z,4.60
2023-12-23T12:37:42.111Z,4.60
2023-12-23T12:40:13.341Z,4.60
2023-12-23T12:42:46.838Z,4.60
2023-12-23T12:45:15.285Z,4.60
2023-12-23T12:47:42.489Z,4.60
2023-12-23T12:50:09.918Z,4.60
2023-12-23T12:52:37.010Z,4.70
2023-12-23T12:55:07.802Z,4.70
2023-12-23T12:57:34.643Z,4.70
2023-12-23T13:00:01.582Z,4.70
2023-12-23T13:02:31.306Z,4.70
2023-12-23T13:04:58.248Z,4.70
2023-12-23T13:07:25.563Z,4.70
2023-12-23T13:09:52.426Z,4.80
2023-12-23T13:12:19.315Z,4.80
2023-12-23T13:14:46.125Z,4.80
2023-12-23T13:17:13.842Z,4.80
2023-12-23T13:19:40.881Z,4.80
2023-12-23T13:22:07.804Z,4.90
2023-12-23T13:24:34.660Z,4.90
2023-12-23T13:27:01.482Z,4.90
2023-12-23T13:29:29.151Z,4.80
2023-12-23T13:31:56.181Z,4.80
2023-12-23T13:34:23.404Z,4.80
2023-12-23T13:36:50.226Z,4.90
2023-12-23T13:39:17.014Z,4.90
2023-12-23T13:41:43.924Z,4.90
2023-12-23T13:44:10.890Z,4.90
2023-12-23T13:46:37.774Z,4.90
2023-12-23T13:49:04.891Z,5.00
2023-12-23T13:51:33.219Z,5.00
2023-12-23T13:54:00.050Z,5.10
2023-12-23T13:56:26.954Z,5.10
2023-12-23T13:58:53.793Z,5.20
2023-12-23T14:01:20.686Z,5.20
2023-12-23T14:03:47.489Z,5.40
2023-12-23T14:06:14.819Z,5.40
2023-12-23T14:08:41.647Z,5.50
2023-12-23T14:11:08.504Z,5.60
2023-12-23T14:13:35.321Z,5.80
2023-12-23T14:16:02.144Z,5.90
2023-12-23T14:18:29.212Z,6.10
2023-12-23T14:20:56.209Z,6.30
2023-12-23T14:23:23.167Z,6.40
2023-12-23T14:25:50.158Z,6.30
2023-12-23T14:28:18.734Z,6.30
2023-12-23T14:30:45.931Z,6.30
2023-12-23T14:33:13.016Z,6.20
2023-12-23T14:35:40.105Z,6.20
2023-12-23T14:38:07.033Z,6.20
2023-12-23T14:40:33.869Z,6.50
2023-12-23T14:43:00.729Z,7.00
2023-12-23T14:45:27.895Z,7.40
2023-12-23T14:47:54.793Z,7.60
2023-12-23T14:50:23.310Z,7.70
2023-12-23T14:52:50.558Z,7.90
2023-12-23T14:55:18.026Z,8.00
2023-12-23T14:57:44.883Z,8.10
2023-12-23T15:00:12.275Z,8.10
2023-12-23T15:02:39.766Z,8.30
2023-12-23T15:05:07.240Z,8.40
2023-12-23T15:07:34.323Z,8.40
2023-12-23T15:10:01.267Z,8.40
2023-12-23T15:12:28.684Z,8.30
2023-12-23T15:14:55.627Z,8.40
2023-12-23T15:17:22.741Z,8.40
2023-12-23T15:19:49.958Z,8.40
2023-12-23T15:22:16.803Z,8.40
2023-12-23T15:24:44.927Z,8.40
2023-12-23T15:27:12.092Z,8.40
2023-12-23T15:29:38.983Z,8.40
2023-12-23T15:32:06.099Z,8.40
2023-12-23T15:34:32.895Z,8.40
2023-12-23T15:36:59.711Z,8.40
2023-12-23T15:39:26.476Z,8.40
2023-12-23T15:41:53.288Z,8.40
2023-12-23T15:44:20.123Z,8.40
2023-12-23T15:46:47.035Z,8.40
2023-12-23T15:49:14.040Z,8.40
2023-12-23T15:51:40.936Z,8.40
2023-12-23T15:54:09.968Z,8.40
2023-12-23T15:56:40.114Z,8.40
2023-12-23T15:59:07.141Z,8.40
2023-12-23T16:01:35.393Z,8.40
2023-12-23T16:04:02.715Z,8.40
2023-12-23T16:06:30.389Z,8.40
2023-12-23T16:08:57.498Z,8.40
2023-12-23T16:11:24.584Z,8.40
2023-12-23T16:13:51.619Z,8.40
2023-12-23T16:16:18.546Z,8.40
2023-12-23T16:18:45.587Z,8.30
2023-12-23T16:21:13.697Z,8.40
2023-12-23T16:23:40.811Z,8.40
2023-12-23T16:26:17.702Z,8.40
2023-12-23T16:28:46.128Z,8.40
2023-12-23T16:31:13.858Z,8.40
2023-12-23T16:33:41.849Z,8.30
2023-12-23T16:36:11.621Z,8.30
2023-12-23T16:38:38.534Z,8.30
2023-12-23T16:41:05.463Z,8.40
2023-12-23T16:43:32.371Z,8.30
2023-12-23T16:45:59.228Z,8.40
2023-12-23T16:48:26.158Z,8.40
2023-12-23T16:50:53.031Z,8.40
2023-12-23T16:53:19.871Z,8.40
2023-12-23T16:55:46.773Z,8.30
2023-12-23T16:58:13.746Z,8.40
2023-12-23T17:00:40.575Z,8.40
2023-12-23T17:03:08.137Z,8.40
2023-12-23T17:05:35.112Z,8.40
2023-12-23T17:08:02.034Z,8.40
2023-12-23T17:10:28.828Z,8.30
2023-12-23T17:12:55.638Z,8.30
2023-12-23T17:15:22.442Z,8.30
2023-12-23T17:17:49.412Z,8.40
2023-12-23T17:20:16.535Z,8.40
2023-12-23T17:22:43.462Z,8.30
2023-12-23T17:25:10.512Z,8.30
2023-12-23T17:27:37.369Z,8.40
2023-12-23T17:30:04.875Z,8.40
2023-12-23T17:32:31.933Z,8.40
2023-12-23T17:34:59.019Z,8.40
2023-12-23T17:37:25.865Z,8.40
2023-12-23T17:39:52.720Z,8.30
2023-12-23T17:42:19.569Z,8.40
2023-12-23T17:44:46.464Z,8.30
2023-12-23T17:47:13.350Z,8.30
2023-12-23T17:49:40.182Z,8.40
2023-12-23T17:52:07.167Z,8.30
2023-12-23T17:54:34.027Z,8.30
2023-12-23T17:57:00.916Z,8.30
2023-12-23T17:59:28.879Z,8.30
2023-12-23T18:01:55.792Z,8.30
2023-12-23T18:04:22.645Z,8.30
2023-12-23T18:06:49.554Z,8.30
2023-12-23T18:09:16.343Z,8.30
2023-12-23T18:11:43.224Z,8.40
2023-12-23T18:14:10.051Z,8.30
2023-12-23T18:16:36.932Z,8.30
2023-12-23T18:19:03.786Z,8.40
2023-12-23T18:21:30.712Z,8.30
2023-12-23T18:23:57.621Z,8.40
2023-12-23T18:26:24.531Z,8.30
2023-12-23T18:28:51.562Z,8.30
2023-12-23T18:31:18.413Z,8.30
2023-12-23T18:33:45.265Z,8.30
2023-12-23T18:36:12.101Z,8.30
2023-12-23T18:38:38.891Z,8.30
2023-12-23T18:41:06.356Z,8.30
2023-12-23T18:43:33.163Z,8.30
2023-12-23T18:45:59.995Z,8.30
2023-12-23T18:48:26.841Z,8.30
2023-12-23T18:50:53.797Z,8.30
2023-12-23T18:53:20.674Z,8.30
2023-12-23T18:55:47.579Z,8.30
2023-12-23T18:58:16.099Z,8.40
2023-12-23T19:00:43.086Z,8.40
2023-12-23T19:03:13.079Z,8.40
2023-12-23T19:05:40.073Z,8.40
2023-12-23T19:08:08.135Z,8.40
2023-12-23T19:10:35.153Z,8.40
2023-12-23T19:13:02.080Z,8.40
2023-12-23T19:15:29.066Z,8.30
2023-12-23T19:17:56.163Z,8.40
2023-12-23T19:20:23.333Z,8.40
2023-12-23T19:22:50.608Z,8.40
2023-12-23T19:25:17.687Z,8.40
2023-12-23T19:27:44.517Z,8.40
2023-12-23T19:30:11.860Z,8.40
2023-12-23T19:32:41.639Z,8.40
2023-12-23T19:35:09.026Z,8.50
2023-12-23T19:37:36.944Z,8.40
2023-12-23T19:40:09.831Z,8.40
2023-12-23T19:42:38.388Z,8.40
2023-12-23T19:45:06.010Z,8.40
2023-12-23T19:47:36.010Z,8.40
2023-12-23T19:50:03.014Z,8.40
2023-12-23T19:52:29.849Z,8.40
2023-12-23T19:54:56.624Z,8.40
2023-12-23T19:57:23.420Z,8.40
2023-12-23T19:59:52.127Z,8.40
2023-12-23T20:02:19.009Z,8.40
2023-12-23T20:04:45.717Z,8.50
2023-12-23T20:07:12.781Z,8.40
2023-12-23T20:09:39.886Z,8.50
2023-12-23T20:12:07.882Z,8.40
2023-12-23T20:14:37.661Z,8.50
2023-12-23T20:17:04.673Z,8.50
2023-12-23T20:19:31.500Z,8.50
2023-12-23T20:21:58.256Z,8.50
2023-12-23T20:24:25.237Z,8.50
2023-12-23T20:26:52.383Z,8.40
2023-12-23T20:29:19.557Z,8.50
2023-12-23T20:31:46.343Z,8.50
2023-12-23T20:34:13.420Z,8.50
2023-12-23T20:36:41.327Z,8.50
2023-12-23T20:39:08.956Z,8.50
2023-12-23T20:41:37.120Z,8.50
2023-12-23T20:44:05.083Z,8.50
2023-12-23T20:46:32.084Z,8.50
2023-12-23T20:48:59.310Z,8.50
2023-12-23T20:51:26.177Z,8.50
2023-12-23T20:53:53.225Z,8.50
2023-12-23T20:56:21.029Z,8.50
2023-12-23T20:58:47.775Z,8.60
2023-12-23T21:01:14.611Z,8.60
2023-12-23T21:03:41.495Z,8.50
2023-12-23T21:06:08.348Z,8.60
2023-12-23T21:08:35.117Z,8.50
2023-12-23T21:11:01.925Z,8.50
2023-12-23T21:13:28.735Z,8.50
2023-12-23T21:15:55.431Z,8.50
2023-12-23T21:18:22.221Z,8.50
2023-12-23T21:20:48.970Z,8.60
2023-12-23T21:23:15.771Z,8.50
2023-12-23T21:25:42.558Z,8.60
2023-12-23T21:28:09.244Z,8.60
2023-12-23T21:30:36.042Z,8.50
2023-12-23T21:33:03.030Z,8.60
2023-12-23T21:35:30.578Z,8.60
2023-12-23T21:37:59.039Z,8.50
2023-12-23T21:40:25.891Z,8.60
2023-12-23T21:42:52.829Z,8.60
2023-12-23T21:45:19.731Z,8.60
2023-12-23T21:47:48.857Z,8.60
2023-12-23T21:50:16.247Z,8.60
2023-12-23T21:52:45.872Z,8.60
2023-12-23T21:55:12.670Z,8.60
2023-12-23T21:57:39.418Z,8.60
2023-12-23T22:00:06.593Z,8.50
2023-12-23T22:02:35.921Z,8.60
2023-12-23T22:05:03.714Z,8.60
2023-12-23T22:07:30.603Z,8.50
2023-12-23T22:09:57.444Z,8.50
2023-12-23T22:12:24.300Z,8.50
2023-12-23T22:14:52.282Z,8.50
2023-12-23T22:17:19.062Z,8.50
2023-12-23T22:19:45.813Z,8.50
2023-12-23T22:22:12.525Z,8.50
2023-12-23T22:24:40.292Z,8.50
2023-12-23T22:27:06.988Z,8.50
2023-12-23T22:29:33.761Z,8.50
2023-12-23T22:32:00.542Z,8.50
2023-12-23T22:34:27.351Z,8.50
2023-12-23T22:36:56.897Z,8.50
2023-12-23T22:39:23.762Z,8.50
2023-12-23T22:41:50.643Z,8.50
2023-12-23T22:44:17.423Z,8.40
2023-12-23T22:46:44.155Z,8.40
2023-12-23T22:49:10.898Z,8.50
2023-12-23T22:51:37.619Z,8.40
2023-12-23T22:54:06.280Z,8.40
2023-12-23T22:56:41.581Z,8.40
2023-12-23T22:59:08.527Z,8.40
2023-12-23T23:01:35.525Z,8.40
2023-12-23T23:04:02.382Z,8.40
2023-12-23T23:06:29.208Z,8.40
2023-12-23T23:08:56.174Z,8.30
2023-12-23T23:11:23.113Z,8.40
2023-12-23T23:13:50.185Z,8.40
2023-12-23T23:16:17.034Z,8.30
2023-12-23T23:18:44.082Z,8.40
2023-12-23T23:21:10.987Z,8.40
2023-12-23T23:23:37.964Z,8.40
2023-12-23T23:26:05.141Z,8.40
2023-12-23T23:28:32.016Z,8.40
2023-12-23T23:30:58.816Z,8.40
2023-12-23T23:33:25.761Z,8.40
2023-12-23T23:35:52.718Z,8.40
2023-12-23T23:38:19.580Z,8.40
2023-12-23T23:40:49.568Z,8.40
2023-12-23T23:43:16.457Z,8.40
2023-12-23T23:45:43.336Z,8.30
2023-12-23T23:48:10.279Z,8.40
2023-12-23T23:50:37.162Z,8.30
2023-12-23T23:53:04.193Z,8.30
2023-12-23T23:55:31.029Z,8.30
2023-12-23T23:57:58.367Z,8.30
